KRAC/RAC METAR and TAF weather

Enter ICAO airport designator
Station Type Date Time Source
KRAC METAR 2020/08/12 17:53 UTC NOAA

KRAC 121753Z AUTO 18007KT 10SM CLR 27/12 A3015 RMK AO2 SLP206 T02670122 10272 20178 53005


Station Type Date Time Source
KRAC Decoded METAR 2020/08/12 17:53 UTC NOAA

BATTEN INTERNATIONAL AIRPORT, WI, United States (KRAC) 42-46N 87-49W 203M
Aug 12, 2020 - 01:53 PM EDT / 2020.08.12 1753 UTC
Wind: from the S (180 degrees) at 8 MPH (7 KT):0
Visibility: 10 mile(s):0
Sky conditions: clear
Temperature: 80.1 F (26.7 C)
Dew Point: 54.0 F (12.2 C)
Relative Humidity: 40%
Pressure (altimeter): 30.15 in. Hg (1020 hPa)
Pressure tendency: 0.01 inches (0.5 hPa) higher than three hours ago
ob: KRAC 121753Z AUTO 18007KT 10SM CLR 27/12 A3015 RMK AO2 SLP206 T02670122 10272 20178 53005
cycle: 18

Station Type Date Time Source
KRAC TAF UTC NOAA

Error!

Example: see airport list